createdAt,value
2022-08-11T00:00:59.204Z,20.95
2022-08-11T00:03:43.822Z,21.01
2022-08-11T00:06:16.130Z,20.99
2022-08-11T00:08:44.706Z,20.95
2022-08-11T00:11:13.187Z,20.76
2022-08-11T00:13:46.587Z,20.93
2022-08-11T00:16:25.835Z,20.96
2022-08-11T00:18:55.588Z,20.98
2022-08-11T00:22:02.982Z,20.91
2022-08-11T00:24:10.963Z,20.90
2022-08-11T00:26:37.866Z,20.78
2022-08-11T00:29:14.712Z,20.80
2022-08-11T00:32:03.309Z,20.79
2022-08-11T00:34:36.078Z,20.78
2022-08-11T00:37:19.710Z,20.53
2022-08-11T00:39:51.174Z,20.26
2022-08-11T00:42:43.501Z,19.99
2022-08-11T00:45:27.461Z,19.71
2022-08-11T00:48:05.957Z,19.67
2022-08-11T00:51:26.813Z,19.60
2022-08-11T00:54:16.205Z,19.51
2022-08-11T00:57:37.713Z,19.47
2022-08-11T01:00:05.225Z,19.34
2022-08-11T01:02:47.596Z,19.27
2022-08-11T01:05:22.328Z,19.00
2022-08-11T01:08:17.557Z,19.30
2022-08-11T01:11:25.657Z,19.28
2022-08-11T01:14:05.403Z,19.29
2022-08-11T01:16:32.043Z,19.29
2022-08-11T01:20:45.790Z,19.19
2022-08-11T01:22:44.896Z,19.15
2022-08-11T01:25:33.149Z,19.03
2022-08-11T01:28:32.813Z,18.93
2022-08-11T01:31:30.647Z,18.81
2022-08-11T01:34:20.947Z,18.62
2022-08-11T01:37:12.563Z,18.70
2022-08-11T01:40:06.390Z,18.70
2022-08-11T01:43:27.589Z,18.70
2022-08-11T01:46:02.698Z,18.63
2022-08-11T01:48:43.378Z,18.51
2022-08-11T01:51:34.711Z,18.43
2022-08-11T01:54:21.687Z,18.29
2022-08-11T01:57:10.345Z,18.22
2022-08-11T01:59:49.890Z,18.04
2022-08-11T02:02:44.632Z,18.13
2022-08-11T02:05:34.641Z,18.10
2022-08-11T02:08:44.812Z,18.09
2022-08-11T02:11:30.386Z,17.95
2022-08-11T02:14:39.989Z,17.79
2022-08-11T02:17:19.102Z,17.78
2022-08-11T02:20:14.342Z,17.74
2022-08-11T02:23:14.145Z,17.74
2022-08-11T02:26:24.433Z,17.81
2022-08-11T02:28:54.739Z,17.89
2022-08-11T02:32:15.416Z,17.86
2022-08-11T02:35:00.854Z,17.85
2022-08-11T02:37:32.932Z,17.83
2022-08-11T02:39:59.634Z,17.75
2022-08-11T02:42:35.917Z,17.70
2022-08-11T02:45:11.936Z,17.76
2022-08-11T02:48:21.931Z,17.93
2022-08-11T02:51:10.328Z,18.13
2022-08-11T02:54:01.942Z,18.17
2022-08-11T02:56:45.129Z,18.09
2022-08-11T02:59:39.095Z,17.99
2022-08-11T03:02:41.277Z,17.84
2022-08-11T03:05:11.910Z,17.73
2022-08-11T03:08:02.967Z,17.60
2022-08-11T03:11:15.965Z,17.54
2022-08-11T03:14:10.717Z,17.30
2022-08-11T03:16:55.590Z,17.23
2022-08-11T03:19:35.737Z,16.88
2022-08-11T03:22:06.755Z,17.06
2022-08-11T03:24:33.954Z,17.02
2022-08-11T03:27:31.344Z,17.07
2022-08-11T03:30:15.583Z,16.91
2022-08-11T03:33:25.439Z,16.88
2022-08-11T03:36:07.798Z,16.79
2022-08-11T03:39:13.907Z,16.40
2022-08-11T03:42:03.145Z,16.82
2022-08-11T03:44:50.098Z,16.83
2022-08-11T03:47:55.607Z,16.72
2022-08-11T03:50:55.224Z,16.84
2022-08-11T03:53:49.928Z,16.77
2022-08-11T03:56:18.116Z,16.75
2022-08-11T03:59:22.479Z,16.76
2022-08-11T04:02:12.028Z,16.64
2022-08-11T04:04:51.403Z,16.77
2022-08-11T04:07:49.383Z,16.75
2022-08-11T04:10:44.928Z,16.58
2022-08-11T04:13:39.149Z,16.60
2022-08-11T04:16:41.107Z,16.12
2022-08-11T04:19:45.145Z,16.68
2022-08-11T04:22:20.988Z,16.82
2022-08-11T04:25:17.058Z,16.87
2022-08-11T04:27:58.850Z,16.91
2022-08-11T04:30:46.879Z,16.86
2022-08-11T04:33:59.633Z,16.43
2022-08-11T04:37:31.412Z,16.40
2022-08-11T04:40:27.215Z,16.81
2022-08-11T04:43:21.136Z,16.78
2022-08-11T04:46:14.003Z,16.74
2022-08-11T04:49:08.760Z,16.74
2022-08-11T04:52:36.096Z,16.73
2022-08-11T04:55:49.822Z,16.61
2022-08-11T04:59:00.091Z,16.30
2022-08-11T05:01:55.654Z,16.45
2022-08-11T05:04:59.638Z,16.44
2022-08-11T05:08:03.472Z,16.28
2022-08-11T05:10:43.085Z,16.66
2022-08-11T05:13:30.504Z,16.60
2022-08-11T05:16:28.512Z,17.00
2022-08-11T05:19:16.228Z,16.84
2022-08-11T05:22:11.404Z,17.22
2022-08-11T05:26:46.055Z,16.93
2022-08-11T05:28:34.674Z,17.27
2022-08-11T05:31:28.618Z,17.26
2022-08-11T05:34:21.734Z,17.22
2022-08-11T05:37:17.234Z,17.29
2022-08-11T05:40:07.029Z,17.53
2022-08-11T05:43:03.220Z,17.60
2022-08-11T05:46:03.073Z,17.50
2022-08-11T05:49:09.072Z,17.52
2022-08-11T05:52:05.485Z,16.97
2022-08-11T05:55:06.304Z,17.92
2022-08-11T05:57:48.476Z,17.98
2022-08-11T06:00:24.198Z,18.30
2022-08-11T06:02:59.215Z,18.51
2022-08-11T06:05:38.219Z,18.55
2022-08-11T06:08:12.228Z,19.06
2022-08-11T06:10:42.382Z,19.55
2022-08-11T06:13:10.573Z,19.56
2022-08-11T06:15:48.761Z,19.89
2022-08-11T06:18:16.657Z,19.79
2022-08-11T06:20:58.068Z,19.84
2022-08-11T06:23:32.644Z,20.36
2022-08-11T06:26:09.090Z,20.54
2022-08-11T06:28:44.949Z,20.75
2022-08-11T06:31:18.503Z,20.91
2022-08-11T06:33:51.074Z,21.27
2022-08-11T06:36:34.315Z,21.56
2022-08-11T06:39:21.398Z,21.88
2022-08-11T06:42:01.105Z,22.20
2022-08-11T06:44:43.328Z,22.48
2022-08-11T06:47:13.132Z,22.72
2022-08-11T06:50:06.364Z,22.95
2022-08-11T06:52:40.389Z,23.13
2022-08-11T06:55:56.642Z,22.81
2022-08-11T06:58:48.856Z,23.13
2022-08-11T07:01:46.392Z,23.57
2022-08-11T07:04:30.344Z,23.97
2022-08-11T07:07:33.538Z,24.19
2022-08-11T07:11:22.802Z,24.36
2022-08-11T07:14:12.869Z,24.48
2022-08-11T07:16:44.406Z,24.65
2022-08-11T07:19:32.771Z,24.53
2022-08-11T07:22:23.251Z,24.64
2022-08-11T07:25:18.777Z,24.72
2022-08-11T07:28:09.008Z,25.28
2022-08-11T07:30:41.597Z,25.07
2022-08-11T07:33:10.427Z,25.38
2022-08-11T07:35:55.535Z,25.68
2022-08-11T07:38:43.137Z,25.18
2022-08-11T07:41:18.312Z,25.52
2022-08-11T07:43:50.396Z,25.50
2022-08-11T07:46:37.053Z,25.96
2022-08-11T07:49:28.833Z,25.86
2022-08-11T07:52:21.184Z,26.23
2022-08-11T07:55:13.392Z,26.33
2022-08-11T07:58:15.932Z,26.75
2022-08-11T08:01:10.141Z,26.87
2022-08-11T08:03:58.670Z,27.07
2022-08-11T08:06:48.115Z,27.38
2022-08-11T08:09:36.805Z,27.31
2022-08-11T08:12:23.559Z,27.42
2022-08-11T08:15:13.766Z,27.66
2022-08-11T08:18:08.379Z,28.00
2022-08-11T08:20:51.913Z,28.27
2022-08-11T08:23:33.570Z,28.43
2022-08-11T08:26:30.129Z,28.49
2022-08-11T08:29:20.648Z,28.57
2022-08-11T08:31:49.281Z,28.89
2022-08-11T08:34:16.760Z,28.63
2022-08-11T08:36:48.183Z,28.65
2022-08-11T08:39:16.709Z,28.89
2022-08-11T08:41:44.807Z,29.22
2022-08-11T08:44:37.332Z,29.60
2022-08-11T08:47:05.259Z,29.65
2022-08-11T08:49:40.199Z,29.53
2022-08-11T08:52:25.435Z,29.34
2022-08-11T08:54:59.721Z,29.43
2022-08-11T08:57:29.267Z,29.35
2022-08-11T08:59:57.926Z,29.77
2022-08-11T09:02:34.495Z,29.94
2022-08-11T09:05:04.506Z,29.66
2022-08-11T09:07:39.742Z,30.01
2022-08-11T09:10:09.743Z,29.87
2022-08-11T09:12:42.631Z,29.91
2022-08-11T09:15:11.698Z,30.00
2022-08-11T09:17:45.148Z,30.13
2022-08-11T09:20:26.113Z,30.00
2022-08-11T09:26:22.214Z,30.67
2022-08-11T09:29:01.841Z,30.81
2022-08-11T09:31:40.010Z,30.58
2022-08-11T09:34:10.933Z,31.27
2022-08-11T09:37:01.958Z,31.63
2022-08-11T09:39:49.632Z,31.34
2022-08-11T09:42:23.481Z,31.68
2022-08-11T09:44:54.370Z,31.28
2022-08-11T09:47:27.873Z,31.23
2022-08-11T09:50:02.004Z,31.71
2022-08-11T09:52:35.715Z,31.81
2022-08-11T09:55:08.567Z,31.58
2022-08-11T09:57:55.163Z,31.75
2022-08-11T10:00:32.172Z,31.73
2022-08-11T10:03:02.515Z,31.20
2022-08-11T10:05:50.549Z,31.65
2022-08-11T10:08:19.719Z,31.62
2022-08-11T10:11:08.996Z,31.97
2022-08-11T10:14:31.916Z,32.16
2022-08-11T10:16:49.403Z,32.60
2022-08-11T10:19:22.115Z,32.47
2022-08-11T10:22:12.195Z,32.23
2022-08-11T10:25:00.211Z,32.59
2022-08-11T10:28:16.714Z,32.81
2022-08-11T10:30:34.952Z,32.99
2022-08-11T10:33:37.071Z,33.04
2022-08-11T10:36:16.291Z,32.61
2022-08-11T10:38:45.750Z,32.28
2022-08-11T10:41:32.925Z,32.57
2022-08-11T10:44:03.528Z,32.73
2022-08-11T10:46:50.162Z,32.80
2022-08-11T10:49:18.781Z,33.05
2022-08-11T10:52:05.574Z,33.32
2022-08-11T10:54:53.076Z,33.58
2022-08-11T10:57:38.985Z,33.83
2022-08-11T11:00:06.985Z,34.00
2022-08-11T11:02:34.862Z,34.01
2022-08-11T11:05:16.509Z,33.82
2022-08-11T11:07:54.942Z,33.63
2022-08-11T11:10:21.799Z,33.64
2022-08-11T11:13:15.624Z,34.02
2022-08-11T11:16:04.689Z,33.82
2022-08-11T11:18:36.560Z,34.27
2022-08-11T11:21:07.815Z,34.28
2022-08-11T11:23:42.107Z,33.19
2022-08-11T11:26:29.410Z,33.49
2022-08-11T11:29:20.353Z,33.88
2022-08-11T11:32:25.915Z,34.11
2022-08-11T11:35:31.153Z,33.79
2022-08-11T11:38:04.254Z,33.67
2022-08-11T11:40:33.524Z,33.75
2022-08-11T11:43:01.417Z,33.52
2022-08-11T11:45:28.790Z,33.81
2022-08-11T11:47:59.390Z,34.05
2022-08-11T11:50:35.784Z,34.18
2022-08-11T11:53:10.682Z,34.30
2022-08-11T11:55:38.346Z,34.42
2022-08-11T11:58:25.497Z,34.65
2022-08-11T12:01:12.373Z,34.40
2022-08-11T12:03:40.936Z,34.17
2022-08-11T12:06:13.355Z,34.28
2022-08-11T12:08:40.634Z,34.32
2022-08-11T12:11:34.367Z,34.39
2022-08-11T12:14:10.492Z,34.33
2022-08-11T12:16:41.007Z,34.17
2022-08-11T12:19:17.621Z,34.08
2022-08-11T12:22:04.294Z,34.44
2022-08-11T12:24:51.410Z,33.93
2022-08-11T12:27:24.034Z,33.87
2022-08-11T12:30:10.967Z,33.83
2022-08-11T12:32:39.482Z,34.21
2022-08-11T12:35:07.344Z,34.24
2022-08-11T12:37:40.672Z,33.98
2022-08-11T12:40:49.909Z,34.15
2022-08-11T12:43:39.780Z,34.09
2022-08-11T12:46:19.532Z,34.23
2022-08-11T12:49:07.967Z,34.31
2022-08-11T12:52:13.023Z,34.29
2022-08-11T12:54:42.058Z,33.85
2022-08-11T12:57:45.946Z,34.11
2022-08-11T13:00:32.785Z,34.33
2022-08-11T13:03:19.167Z,34.50
2022-08-11T13:05:47.551Z,34.70
2022-08-11T13:08:15.290Z,34.51
2022-08-11T13:11:03.503Z,34.64
2022-08-11T13:13:53.760Z,33.97
2022-08-11T13:16:20.956Z,33.53
2022-08-11T13:18:49.061Z,33.85
2022-08-11T13:21:20.747Z,33.70
2022-08-11T13:24:00.843Z,33.34
2022-08-11T13:26:49.377Z,33.50
2022-08-11T13:29:22.345Z,33.66
2022-08-11T13:31:50.488Z,33.59
2022-08-11T13:34:19.905Z,34.02
2022-08-11T13:36:50.291Z,34.17
2022-08-11T13:39:18.322Z,34.33
2022-08-11T13:41:47.802Z,34.08
2022-08-11T13:44:21.563Z,34.05
2022-08-11T13:46:53.095Z,33.93
2022-08-11T13:49:21.684Z,33.65
2022-08-11T13:51:49.274Z,34.00
2022-08-11T13:54:19.613Z,34.19
2022-08-11T13:56:51.202Z,34.30
2022-08-11T13:59:30.805Z,34.00
2022-08-11T14:02:21.348Z,33.94
2022-08-11T14:04:59.003Z,34.07
2022-08-11T14:07:35.234Z,34.10
2022-08-11T14:10:03.416Z,33.81
2022-08-11T14:12:50.512Z,34.10
2022-08-11T14:15:19.925Z,33.79
2022-08-11T14:18:09.376Z,33.83
2022-08-11T14:20:59.291Z,33.52
2022-08-11T14:23:30.965Z,33.12
2022-08-11T14:26:18.454Z,33.08
2022-08-11T14:28:46.116Z,33.04
2022-08-11T14:31:15.488Z,33.64
2022-08-11T14:34:00.722Z,33.73
2022-08-11T14:36:39.599Z,33.17
2022-08-11T14:39:16.978Z,33.06
2022-08-11T14:42:30.413Z,33.18
2022-08-11T14:45:58.010Z,33.44
2022-08-11T14:48:17.555Z,32.93
2022-08-11T14:50:47.123Z,33.04
2022-08-11T14:53:18.795Z,33.00
2022-08-11T14:56:04.830Z,32.84
2022-08-11T14:58:36.179Z,32.92
2022-08-11T15:01:24.195Z,33.11
2022-08-11T15:04:34.033Z,33.07
2022-08-11T15:06:42.990Z,32.78
2022-08-11T15:09:09.955Z,32.76
2022-08-11T15:11:55.200Z,32.83
2022-08-11T15:14:48.088Z,32.92
2022-08-11T15:17:15.613Z,32.92
2022-08-11T15:20:05.218Z,33.03
2022-08-11T15:22:50.718Z,32.74
2022-08-11T15:25:19.793Z,32.19
2022-08-11T15:28:09.027Z,32.44
2022-08-11T15:30:55.937Z,32.02
2022-08-11T15:33:45.397Z,32.17
2022-08-11T15:36:33.553Z,32.37
2022-08-11T15:39:07.921Z,32.39
2022-08-11T15:42:04.988Z,32.29
2022-08-11T15:45:08.314Z,32.08
2022-08-11T15:47:41.652Z,31.93
2022-08-11T15:50:14.090Z,32.47
2022-08-11T15:52:58.146Z,32.51
2022-08-11T15:55:25.848Z,32.37
2022-08-11T15:58:15.304Z,32.05
2022-08-11T16:01:08.702Z,32.37
2022-08-11T16:04:07.175Z,32.36
2022-08-11T16:06:38.397Z,32.12
2022-08-11T16:09:18.093Z,32.33
2022-08-11T16:11:47.206Z,32.37
2022-08-11T16:14:35.143Z,32.46
2022-08-11T16:17:02.967Z,32.30
2022-08-11T16:19:36.026Z,34.77
2022-08-11T16:22:07.234Z,37.00
2022-08-11T16:26:38.063Z,37.15
2022-08-11T16:27:26.058Z,36.41
2022-08-11T16:29:55.243Z,36.28
2022-08-11T16:32:24.199Z,37.43
2022-08-11T16:35:26.125Z,37.69
2022-08-11T16:38:15.894Z,38.23
2022-08-11T16:40:44.176Z,37.68
2022-08-11T16:43:33.838Z,36.62
2022-08-11T16:46:21.993Z,36.86
2022-08-11T16:48:50.660Z,36.82
2022-08-11T16:51:20.790Z,38.16
2022-08-11T16:54:05.466Z,38.95
2022-08-11T16:56:35.704Z,38.44
2022-08-11T16:59:18.206Z,38.48
2022-08-11T17:01:54.381Z,37.88
2022-08-11T17:04:55.120Z,39.39
2022-08-11T17:07:43.306Z,38.85
2022-08-11T17:10:51.063Z,38.15
2022-08-11T17:13:25.818Z,38.14
2022-08-11T17:16:06.900Z,36.85
2022-08-11T17:18:56.303Z,36.34
2022-08-11T17:21:26.356Z,38.12
2022-08-11T17:24:06.429Z,38.72
2022-08-11T17:26:58.637Z,38.76
2022-08-11T17:29:28.717Z,38.51
2022-08-11T17:32:15.231Z,37.75
2022-08-11T17:35:05.740Z,36.04
2022-08-11T17:37:36.863Z,35.07
2022-08-11T17:40:08.177Z,34.48
2022-08-11T17:42:56.389Z,33.68
2022-08-11T17:45:43.368Z,32.39
2022-08-11T17:48:27.082Z,31.96
2022-08-11T17:51:34.050Z,31.22
2022-08-11T17:54:24.386Z,31.06
2022-08-11T17:57:20.490Z,30.56
2022-08-11T17:59:53.712Z,30.19
2022-08-11T18:02:43.932Z,29.78
2022-08-11T18:05:13.631Z,30.08
2022-08-11T18:08:01.636Z,29.63
2022-08-11T18:10:49.460Z,29.73
2022-08-11T18:13:40.202Z,29.47
2022-08-11T18:16:29.456Z,29.37
2022-08-11T18:19:14.890Z,28.83
2022-08-11T18:22:14.557Z,29.04
2022-08-11T18:25:12.390Z,29.01
2022-08-11T18:28:04.888Z,28.67
2022-08-11T18:31:03.167Z,28.53
2022-08-11T18:34:13.583Z,28.10
2022-08-11T18:37:19.555Z,27.88
2022-08-11T18:40:16.428Z,27.53
2022-08-11T18:43:04.103Z,27.77
2022-08-11T18:46:00.476Z,27.01
2022-08-11T18:48:54.981Z,27.42
2022-08-11T18:51:42.232Z,26.97
2022-08-11T18:54:29.930Z,27.08
2022-08-11T18:57:19.498Z,26.46
2022-08-11T19:00:06.376Z,26.65
2022-08-11T19:02:55.449Z,26.53
2022-08-11T19:06:36.945Z,26.27
2022-08-11T19:08:53.610Z,25.87
2022-08-11T19:11:42.886Z,26.08
2022-08-11T19:14:30.879Z,25.89
2022-08-11T19:17:42.860Z,25.63
2022-08-11T19:20:29.187Z,25.51
2022-08-11T19:23:15.683Z,25.16
2022-08-11T19:26:03.792Z,25.32
2022-08-11T19:28:51.987Z,25.07
2022-08-11T19:31:43.869Z,25.00
2022-08-11T19:34:34.926Z,24.67
2022-08-11T19:37:24.685Z,24.37
2022-08-11T19:40:13.453Z,24.46
2022-08-11T19:43:01.565Z,24.32
2022-08-11T19:45:52.344Z,23.93
2022-08-11T19:48:43.146Z,23.64
2022-08-11T19:51:30.463Z,23.50
2022-08-11T19:54:17.014Z,23.62
2022-08-11T19:57:03.818Z,23.61
2022-08-11T19:59:51.042Z,23.42
2022-08-11T20:02:37.343Z,23.63
2022-08-11T20:05:24.429Z,23.17
2022-08-11T20:08:12.515Z,23.37
2022-08-11T20:10:58.527Z,23.18
2022-08-11T20:13:46.788Z,23.55
2022-08-11T20:16:38.391Z,23.48
2022-08-11T20:19:54.977Z,23.03
2022-08-11T20:22:34.097Z,23.46
2022-08-11T20:25:21.248Z,23.41
2022-08-11T20:28:09.470Z,23.17
2022-08-11T20:30:55.456Z,22.99
2022-08-11T20:33:41.800Z,23.06
2022-08-11T20:36:29.202Z,22.53
2022-08-11T20:39:15.454Z,22.97
2022-08-11T20:42:01.841Z,22.81
2022-08-11T20:44:48.936Z,22.60
2022-08-11T20:47:56.833Z,22.66
2022-08-11T20:50:45.602Z,22.71
2022-08-11T20:53:35.680Z,22.79
2022-08-11T20:56:28.468Z,22.28
2022-08-11T20:59:17.874Z,22.54
2022-08-11T21:05:13.102Z,21.74
2022-08-11T21:08:07.632Z,21.57
2022-08-11T21:10:57.373Z,21.66
2022-08-11T21:13:51.444Z,21.39
2022-08-11T21:16:47.483Z,21.31
2022-08-11T21:20:01.853Z,21.45
2022-08-11T21:22:59.421Z,21.12
2022-08-11T21:25:59.334Z,21.37
2022-08-11T21:28:47.298Z,21.25
2022-08-11T21:31:34.487Z,20.89
2022-08-11T21:34:21.633Z,21.36
2022-08-11T21:37:09.531Z,21.16
2022-08-11T21:39:56.283Z,21.06
2022-08-11T21:42:44.335Z,20.46
2022-08-11T21:45:31.696Z,21.04
2022-08-11T21:48:18.635Z,21.04
2022-08-11T21:51:03.891Z,20.96
2022-08-11T21:53:50.611Z,20.43
2022-08-11T21:56:37.318Z,21.00
2022-08-11T21:59:24.318Z,20.73
2022-08-11T22:02:12.971Z,19.41
2022-08-11T22:05:03.800Z,20.63
2022-08-11T22:07:50.331Z,20.49
2022-08-11T22:10:42.524Z,20.21
2022-08-11T22:13:31.585Z,20.21
2022-08-11T22:16:18.480Z,19.66
2022-08-11T22:19:06.200Z,19.70
2022-08-11T22:22:01.765Z,19.90
2022-08-11T22:24:52.931Z,20.08
2022-08-11T22:27:41.544Z,20.03
2022-08-11T22:30:28.889Z,19.97
2022-08-11T22:33:23.422Z,19.53
2022-08-11T22:36:13.442Z,19.69
2022-08-11T22:39:01.445Z,19.37
2022-08-11T22:41:48.449Z,19.44
2022-08-11T22:44:34.144Z,19.51
2022-08-11T22:47:20.181Z,19.54
2022-08-11T22:50:10.965Z,19.26
2022-08-11T22:52:57.453Z,19.08
2022-08-11T22:55:43.954Z,18.55
2022-08-11T22:58:30.810Z,18.85
2022-08-11T23:01:17.372Z,18.76
2022-08-11T23:04:05.796Z,18.62
2022-08-11T23:06:52.937Z,18.81
2022-08-11T23:09:39.158Z,18.82
2022-08-11T23:12:25.222Z,19.10
2022-08-11T23:15:11.229Z,18.39
2022-08-11T23:17:58.713Z,18.64
2022-08-11T23:20:55.553Z,19.07
2022-08-11T23:23:42.508Z,19.09
2022-08-11T23:26:30.073Z,18.92
2022-08-11T23:29:17.318Z,18.57
2022-08-11T23:32:05.588Z,18.74
2022-08-11T23:35:03.669Z,18.84
2022-08-11T23:37:51.058Z,18.86
2022-08-11T23:40:36.807Z,18.66
2022-08-11T23:43:24.170Z,18.63
2022-08-11T23:46:09.179Z,18.88
2022-08-11T23:48:57.488Z,19.08
2022-08-11T23:51:45.018Z,18.36
2022-08-11T23:54:49.318Z,18.63
2022-08-11T23:57:36.641Z,18.83
